Página principal
METAR-TAF:

METAR-TAF

Aeroportos :

Dakhla, Marrocos

latitude: 23-43-05N, longitude: 015-55-55W, altura: 11 m

Observação actual do tempo

O boletim foi feito há 36 minutos, às 08:00 UTC
Vento 18 kt de nordeste
Temperatura 21°C
Humidade 83%
Pressão 1014 hPa
Visibilidade: 8000 m
Nuvens dispersasa uma altura de 1000 ft

METAR: GMMH 200800Z 04018KT 8000 SCT010 21/18 Q1014 NOSIG

Hora: 09:36 (08:36 UTC)

Previsão

O boletim foi feito há 3 horas e 36 minutos, às 05:00 UTC
Previsão válida de 20 às 06 UTC a 21 às 12 UTC
Vento 18 kt de nor-nordeste
Visibilidade: 8000 m

TAF: GMMH 200500Z 2006/2112 03018KT 8000 NSC

Observações e previsões do tempo de mais de 4000 aeroportos (mensagens METAR e TAF).

As estações disponíveis são os pontos amarelos e vermelhos sobre o mapa.

Mova o rato sobre o mapa para ver o nome da estação.

Depois clique no ponto para visualizar as observações e previsões meteorológicas.

Para alterar o mapa : clique nos botões verdes com uma cruz preta para aumentar o zoom; no botão verde com uma pitada de zoom; ou nas setas verdes para mapas adjacentes.


METAR-TAF: